Time;durP1;ratioP1;P1;durP2;ratioP2;P2;SDS_P1;SDS_P2;PMS_P1;PMS_P2;Temp;Humidity;BMP_temperature;BMP_pressure;BME280_temperature;BME280_humidity;BME280_pressure;Samples;Min_cycle;Max_cycle;Signal;HPM_P1;HPM_P2
2021/03/27 00:01:29;;;;;;;10.77;6.03;;;11.10;99.90;;;;;;4896756;29;20055;-78
2021/03/27 00:04:15;;;;;;;9.85;6.20;;;11.00;99.90;;;;;;4877168;29;20048;-78
2021/03/27 00:06:51;;;;;;;7.50;5.60;;;10.80;99.90;;;;;;4882227;29;20044;-77
2021/03/27 00:09:30;;;;;;;10.20;5.80;;;10.70;99.90;;;;;;4883112;29;20040;-78
2021/03/27 00:12:04;;;;;;;11.50;5.85;;;10.60;99.90;;;;;;4894538;29;20505;-80
2021/03/27 00:14:46;;;;;;;12.70;6.32;;;10.60;99.90;;;;;;4879956;29;20059;-78
2021/03/27 00:17:32;;;;;;;7.85;5.63;;;10.50;99.90;;;;;;4881266;29;20040;-78
2021/03/27 00:20:23;;;;;;;6.80;5.30;;;10.50;99.90;;;;;;4882696;29;20138;-79
2021/03/27 00:23:01;;;;;;;9.88;6.20;;;10.60;99.90;;;;;;4883264;29;20488;-78
2021/03/27 00:25:41;;;;;;;8.93;5.57;;;10.70;99.90;;;;;;4880770;29;20496;-78
2021/03/27 00:28:16;;;;;;;8.82;5.80;;;10.80;99.90;;;;;;4868980;29;20051;-78
2021/03/27 00:30:53;;;;;;;7.18;5.10;;;10.80;99.90;;;;;;4863679;29;20053;-79
2021/03/27 00:33:29;;;;;;;6.43;4.75;;;10.90;99.90;;;;;;4864018;29;20051;-78
2021/03/27 00:36:10;;;;;;;7.53;5.32;;;11.00;99.90;;;;;;4864335;29;20049;-78
2021/03/27 00:39:00;;;;;;;8.45;5.50;;;11.10;99.90;;;;;;4864961;29;20045;-78
2021/03/27 00:41:47;;;;;;;10.65;6.53;;;11.20;99.90;;;;;;4864214;29;20049;-78
2021/03/27 00:44:21;;;;;;;7.18;5.20;;;11.20;99.90;;;;;;4868592;29;20064;-79
2021/03/27 00:46:54;;;;;;;7.97;5.07;;;11.10;99.90;;;;;;4883511;29;20413;-78
2021/03/27 00:49:32;;;;;;;8.45;5.32;;;11.10;99.90;;;;;;4883259;29;20465;-80
2021/03/27 00:52:07;;;;;;;6.85;5.63;;;11.00;99.90;;;;;;4868715;29;20049;-78
2021/03/27 00:54:58;;;;;;;11.38;5.35;;;10.90;99.90;;;;;;4868508;29;20048;-78
2021/03/27 00:57:33;;;;;;;7.97;5.72;;;10.80;99.90;;;;;;4868368;29;20528;-78
2021/03/27 01:00:11;;;;;;;7.32;4.93;;;10.80;99.90;;;;;;4868236;29;20045;-78
2021/03/27 01:03:22;;;;;;;7.03;4.97;;;10.80;99.90;;;;;;4847459;29;20429;-79
2021/03/27 01:06:17;;;;;;;7.15;5.05;;;10.60;99.90;;;;;;4886771;29;20044;-78
2021/03/27 01:09:10;;;;;;;11.48;5.68;;;10.50;99.90;;;;;;4886394;29;20058;-78
2021/03/27 01:12:08;;;;;;;10.45;6.85;;;10.40;99.90;;;;;;4886704;29;20055;-78
2021/03/27 01:14:49;;;;;;;8.85;5.50;;;10.30;99.90;;;;;;4899970;29;20052;-78
2021/03/27 01:17:26;;;;;;;10.90;6.30;;;10.30;99.90;;;;;;4868122;29;20040;-78
2021/03/27 01:20:03;;;;;;;15.63;6.65;;;10.30;99.90;;;;;;4882590;29;20049;-78
2021/03/27 01:22:34;;;;;;;9.20;6.30;;;10.30;99.90;;;;;;4883568;29;20408;-78
2021/03/27 01:25:04;;;;;;;9.05;6.97;;;10.40;99.90;;;;;;4867233;29;20084;-78
2021/03/27 01:27:54;;;;;;;8.25;6.47;;;10.40;99.90;;;;;;4882849;29;20508;-78
2021/03/27 01:30:53;;;;;;;9.93;7.38;;;10.40;99.90;;;;;;4867771;29;20053;-78
2021/03/27 01:33:30;;;;;;;10.45;7.40;;;10.40;99.90;;;;;;4867711;29;20053;-78
2021/03/27 01:36:18;;;;;;;12.00;7.05;;;10.40;99.90;;;;;;4899293;29;20055;-78
2021/03/27 01:39:13;;;;;;;10.52;6.93;;;10.50;99.90;;;;;;4867589;29;20044;-78
2021/03/27 01:42:03;;;;;;;9.73;6.97;;;10.50;99.90;;;;;;4867432;29;20048;-80
2021/03/27 01:44:46;;;;;;;9.98;6.35;;;10.50;99.90;;;;;;4867600;29;20139;-78
2021/03/27 01:47:40;;;;;;;8.88;7.22;;;10.70;99.90;;;;;;4867664;29;20100;-79
2021/03/27 01:50:27;;;;;;;9.73;6.13;;;10.80;99.90;;;;;;4867711;29;20082;-78
2021/03/27 01:53:01;;;;;;;9.50;6.53;;;10.80;99.90;;;;;;4882740;29;20253;-78
2021/03/27 01:55:47;;;;;;;8.20;6.20;;;10.80;99.90;;;;;;4882106;29;20083;-78
2021/03/27 01:58:37;;;;;;;9.23;5.85;;;10.70;99.90;;;;;;4867004;29;20132;-78
2021/03/27 02:01:18;;;;;;;8.95;6.65;;;10.70;99.90;;;;;;4882788;29;20051;-78
2021/03/27 02:04:05;;;;;;;8.27;6.13;;;10.70;99.90;;;;;;4881781;29;20139;-78
2021/03/27 02:06:51;;;;;;;12.18;7.47;;;10.60;99.90;;;;;;4882784;29;20037;-79
2021/03/27 02:09:28;;;;;;;10.82;6.95;;;10.70;99.90;;;;;;4866791;29;20431;-78
2021/03/27 02:12:07;;;;;;;10.13;6.80;;;10.60;99.90;;;;;;4866683;29;20045;-78
2021/03/27 02:14:55;;;;;;;10.27;7.80;;;10.50;99.90;;;;;;4867025;29;20131;-78
2021/03/27 02:17:38;;;;;;;11.43;7.63;;;10.40;99.90;;;;;;4882447;29;20066;-80
2021/03/27 02:20:51;;;;;;;13.05;7.57;;;10.30;99.90;;;;;;4866861;29;20045;-78
2021/03/27 02:23:44;;;;;;;12.30;8.10;;;10.30;99.90;;;;;;4866925;29;20037;-79
2021/03/27 02:26:18;;;;;;;11.15;7.78;;;10.10;99.90;;;;;;4882641;29;20036;-80
2021/03/27 02:29:29;;;;;;;8.85;6.85;;;10.10;99.90;;;;;;4867001;29;20056;-78
2021/03/27 02:32:35;;;;;;;11.18;7.13;;;10.00;99.90;;;;;;4866646;29;20508;-78
2021/03/27 02:35:06;;;;;;;11.73;7.07;;;10.00;99.90;;;;;;4866436;29;20102;-79
2021/03/27 02:37:44;;;;;;;10.60;6.72;;;9.90;99.90;;;;;;4866529;29;20044;-78
2021/03/27 02:40:21;;;;;;;11.52;7.22;;;9.80;99.90;;;;;;4866556;29;20500;-78
2021/03/27 02:43:02;;;;;;;8.50;6.50;;;9.80;99.90;;;;;;4866547;29;20100;-78
2021/03/27 02:45:41;;;;;;;11.68;6.80;;;9.70;99.90;;;;;;4881637;29;20584;-78
2021/03/27 02:48:29;;;;;;;10.07;7.05;;;9.70;99.90;;;;;;4898068;29;20044;-78
2021/03/27 02:51:10;;;;;;;9.75;6.97;;;9.60;99.90;;;;;;4866445;29;20070;-78
2021/03/27 02:54:09;;;;;;;8.70;6.30;;;9.50;99.90;;;;;;4866494;29;20128;-78
2021/03/27 02:56:58;;;;;;;14.00;6.88;;;9.40;99.90;;;;;;4881072;29;20100;-79
2021/03/27 02:59:51;;;;;;;8.70;6.43;;;9.40;99.90;;;;;;4866246;29;20068;-78
2021/03/27 03:02:41;;;;;;;12.43;7.05;;;9.20;99.90;;;;;;4880927;29;20100;-78
2021/03/27 03:05:23;;;;;;;8.70;6.82;;;9.10;99.90;;;;;;4866097;29;20036;-78
2021/03/27 03:08:03;;;;;;;9.23;7.07;;;9.00;99.90;;;;;;4866139;29;20049;-78
2021/03/27 03:11:02;;;;;;;12.93;7.88;;;9.00;99.90;;;;;;4865971;29;20419;-78
2021/03/27 03:13:43;;;;;;;11.80;7.07;;;9.00;99.90;;;;;;4880066;29;20056;-78
2021/03/27 03:16:28;;;;;;;11.80;6.45;;;9.00;99.90;;;;;;4866349;29;20270;-78
2021/03/27 03:19:23;;;;;;;16.27;7.80;;;9.10;99.90;;;;;;4880728;29;20100;-78
2021/03/27 03:22:19;;;;;;;10.88;7.25;;;9.20;99.90;;;;;;4865945;29;20497;-78
2021/03/27 03:24:57;;;;;;;11.13;7.38;;;9.30;99.90;;;;;;4880704;29;20678;-78
2021/03/27 03:27:48;;;;;;;10.50;6.60;;;9.30;99.90;;;;;;4880956;29;20051;-78
2021/03/27 03:30:28;;;;;;;8.38;5.93;;;9.40;99.90;;;;;;4865876;29;20139;-78
2021/03/27 03:33:22;;;;;;;9.23;6.45;;;9.40;99.90;;;;;;4865898;29;20424;-78
2021/03/27 03:36:42;;;;;;;8.73;6.13;;;9.50;99.90;;;;;;4880434;29;20116;-78
2021/03/27 03:39:40;;;;;;;8.00;6.07;;;9.50;99.90;;;;;;4834089;29;20563;-78
2021/03/27 03:42:47;;;;;;;10.15;5.28;;;9.50;99.90;;;;;;4865835;29;20120;-78
2021/03/27 03:45:37;;;;;;;8.32;5.95;;;9.40;99.90;;;;;;4881325;29;20048;-78
2021/03/27 03:48:38;;;;;;;7.47;5.47;;;9.30;99.90;;;;;;4866236;29;20044;-78
2021/03/27 03:51:45;;;;;;;7.63;5.15;;;9.30;99.90;;;;;;4897935;29;20115;-78
2021/03/27 03:54:41;;;;;;;6.53;5.28;;;9.20;99.90;;;;;;4866354;29;20048;-78
2021/03/27 03:57:27;;;;;;;8.63;5.53;;;9.10;99.90;;;;;;4881555;29;20036;-78
2021/03/27 04:00:01;;;;;;;7.38;5.10;;;9.00;99.90;;;;;;4897424;29;20079;-78
2021/03/27 04:02:37;;;;;;;7.15;5.72;;;8.90;99.90;;;;;;4865752;29;20139;-78
2021/03/27 04:05:37;;;;;;;7.55;4.90;;;8.80;99.90;;;;;;4881087;29;20041;-78
2021/03/27 04:08:49;;;;;;;6.70;5.32;;;8.70;99.90;;;;;;4865403;29;20451;-78
2021/03/27 04:11:44;;;;;;;8.20;5.30;;;8.70;99.90;;;;;;4801272;29;20154;-78
2021/03/27 04:14:38;;;;;;;7.53;4.25;;;8.60;99.90;;;;;;4770382;29;20459;-77
2021/03/27 04:17:12;;;;;;;6.43;4.10;;;8.70;99.90;;;;;;4865536;29;20076;-78
2021/03/27 04:19:44;;;;;;;5.30;3.40;;;8.70;99.90;;;;;;4879033;29;20092;-78
2021/03/27 04:22:27;;;;;;;7.63;3.83;;;8.70;99.90;;;;;;4864134;29;20592;-78
2021/03/27 04:25:23;;;;;;;7.45;3.95;;;8.60;99.90;;;;;;4864508;29;20047;-79
2021/03/27 04:28:01;;;;;;;5.55;3.95;;;8.60;99.90;;;;;;4880073;29;20044;-78
2021/03/27 04:30:43;;;;;;;7.20;3.92;;;8.60;99.90;;;;;;4880012;29;20052;-80
2021/03/27 04:33:46;;;;;;;5.13;3.75;;;8.60;99.90;;;;;;4864504;29;20591;-78
2021/03/27 04:36:47;;;;;;;4.00;2.88;;;8.60;99.90;;;;;;4864358;29;20479;-77
2021/03/27 04:39:40;;;;;;;7.25;3.35;;;8.60;99.90;;;;;;4843298;29;20139;-77
2021/03/27 04:42:35;;;;;;;5.07;4.03;;;8.60;99.90;;;;;;4864199;29;20088;-77
2021/03/27 04:45:09;;;;;;;5.03;3.75;;;8.50;99.90;;;;;;4866070;29;20059;-78
2021/03/27 04:47:52;;;;;;;5.15;3.78;;;8.40;99.90;;;;;;4879451;29;20517;-79
2021/03/27 04:50:50;;;;;;;5.25;3.85;;;8.40;99.90;;;;;;4863775;29;20044;-78
2021/03/27 04:53:34;;;;;;;5.28;4.00;;;8.30;99.90;;;;;;4863831;29;20041;-78
2021/03/27 04:56:41;;;;;;;7.88;3.83;;;8.30;99.90;;;;;;4879393;29;20480;-78
2021/03/27 04:59:33;;;;;;;5.13;4.30;;;8.30;99.90;;;;;;4868234;29;20545;-77
2021/03/27 05:02:10;;;;;;;4.82;4.15;;;8.30;99.90;;;;;;4895149;29;20048;-78
2021/03/27 05:05:23;;;;;;;8.10;5.13;;;8.30;99.90;;;;;;4863623;29;20048;-78
2021/03/27 05:08:14;;;;;;;6.22;5.15;;;8.30;99.90;;;;;;4847221;29;20064;-77
2021/03/27 05:11:00;;;;;;;7.20;5.28;;;8.20;99.90;;;;;;4863820;29;20151;-79
2021/03/27 05:13:49;;;;;;;7.00;5.40;;;8.20;99.90;;;;;;4863747;29;20060;-79
2021/03/27 05:16:25;;;;;;;5.45;4.38;;;8.10;99.90;;;;;;4879109;29;20120;-79
2021/03/27 05:19:01;;;;;;;4.43;3.35;;;8.10;99.90;;;;;;4878087;29;20045;-79
2021/03/27 05:21:36;;;;;;;4.93;3.35;;;8.10;99.90;;;;;;4863686;29;20044;-77
2021/03/27 05:24:29;;;;;;;3.92;2.97;;;8.10;99.90;;;;;;4863429;29;20040;-77
2021/03/27 05:27:27;;;;;;;4.05;3.08;;;8.00;99.90;;;;;;4879175;29;20136;-77
2021/03/27 05:30:10;;;;;;;3.88;2.80;;;7.90;99.90;;;;;;4866249;29;20083;-79
2021/03/27 05:33:18;;;;;;;3.63;2.72;;;7.90;99.90;;;;;;4866678;29;20043;-77
2021/03/27 05:36:05;;;;;;;3.42;2.30;;;7.80;99.90;;;;;;4881637;29;20048;-77
2021/03/27 05:38:51;;;;;;;3.95;2.10;;;7.90;99.90;;;;;;4881121;29;20040;-78
2021/03/27 05:41:49;;;;;;;5.50;2.40;;;7.90;99.90;;;;;;4866725;29;20136;-77
2021/03/27 05:44:54;;;;;;;3.67;2.38;;;7.80;99.90;;;;;;4835179;29;20056;-78
2021/03/27 05:52:18;;;;;;;2.80;2.13;;;7.90;99.90;;;;;;4910580;29;20040;-80
2021/03/27 05:59:12;;;;;;;3.30;2.25;;;7.90;99.90;;;;;;4902070;29;20107;-81
2021/03/27 06:02:04;;;;;;;3.35;1.98;;;7.90;99.90;;;;;;4882614;29;20064;-81
2021/03/27 06:05:11;;;;;;;2.75;2.20;;;7.90;99.90;;;;;;4887437;29;20067;-81
2021/03/27 06:08:22;;;;;;;3.67;2.20;;;7.90;99.90;;;;;;4905733;29;20057;-81
2021/03/27 06:17:14;;;;;;;4.47;2.10;;;7.80;99.90;;;;;;4847272;29;20091;-82
2021/03/27 06:20:13;;;;;;;6.00;2.42;;;7.90;99.90;;;;;;4824991;29;20049;-81
2021/03/27 06:23:23;;;;;;;2.83;0.90;;;7.90;99.90;;;;;;4814511;29;20062;-80
2021/03/27 06:26:30;;;;;;;1.80;0.50;;;7.60;99.90;;;;;;4815513;29;20057;-80
2021/03/27 06:29:41;;;;;;;0.77;0.60;;;7.00;99.90;;;;;;4823013;29;20062;-80
2021/03/27 06:32:35;;;;;;;0.95;0.70;;;6.60;99.90;;;;;;4844314;29;20046;-81
2021/03/27 06:35:43;;;;;;;1.48;0.50;;;6.40;99.90;;;;;;4831080;29;20313;-80
2021/03/27 06:38:34;;;;;;;1.00;0.80;;;6.20;99.90;;;;;;4831663;29;20123;-80
2021/03/27 06:41:46;;;;;;;2.30;0.77;;;6.10;99.90;;;;;;4831230;29;20315;-80
2021/03/27 06:44:40;;;;;;;22.02;10.32;;;6.00;99.90;;;;;;4828587;29;20054;-81
2021/03/27 06:47:43;;;;;;;2.25;1.35;;;5.90;99.90;;;;;;4816279;29;20054;-78
2021/03/27 06:50:36;;;;;;;0.63;0.45;;;5.90;99.90;;;;;;4896284;29;20121;-79
2021/03/27 06:53:35;;;;;;;0.80;0.50;;;5.90;99.90;;;;;;4880840;29;20051;-78
2021/03/27 06:56:29;;;;;;;1.63;0.70;;;5.90;99.90;;;;;;4879803;29;20128;-78
2021/03/27 06:59:07;;;;;;;2.20;0.70;;;5.90;99.90;;;;;;4863788;29;20087;-78
2021/03/27 07:02:14;;;;;;;1.70;0.75;;;5.90;99.90;;;;;;4864403;29;20139;-78
2021/03/27 07:05:11;;;;;;;2.25;0.77;;;5.90;99.90;;;;;;4880117;29;20408;-78
2021/03/27 07:08:11;;;;;;;1.63;0.70;;;6.00;99.90;;;;;;4879184;29;20084;-78
2021/03/27 07:10:55;;;;;;;1.95;0.60;;;6.00;99.90;;;;;;4879149;29;20139;-78
2021/03/27 07:13:54;;;;;;;1.17;0.90;;;6.00;99.90;;;;;;4864939;29;20139;-78
2021/03/27 07:16:31;;;;;;;0.90;0.70;;;6.10;99.90;;;;;;4865047;29;20045;-78
2021/03/27 07:19:21;;;;;;;1.45;0.80;;;6.10;99.90;;;;;;4879712;29;20075;-78
2021/03/27 07:22:27;;;;;;;2.03;0.70;;;6.20;99.90;;;;;;4881595;29;20115;-77
2021/03/27 07:24:58;;;;;;;2.03;1.02;;;6.20;99.90;;;;;;4872662;29;20037;-78
2021/03/27 07:28:08;;;;;;;1.00;0.85;;;6.30;99.90;;;;;;4879400;29;20523;-78
2021/03/27 07:30:48;;;;;;;2.13;0.88;;;6.30;99.90;;;;;;4837059;29;20054;-77
2021/03/27 07:33:54;;;;;;;3.05;0.90;;;6.40;99.90;;;;;;4874423;29;20053;-77
2021/03/27 07:36:35;;;;;;;1.63;1.20;;;6.40;99.90;;;;;;4871450;29;20053;-77
2021/03/27 07:39:43;;;;;;;2.20;1.30;;;6.50;99.90;;;;;;4898564;29;20100;-78
2021/03/27 07:42:39;;;;;;;2.88;0.98;;;6.60;99.90;;;;;;4873178;29;20144;-77
2021/03/27 07:45:24;;;;;;;2.13;0.80;;;6.60;99.90;;;;;;4893831;29;20163;-77
2021/03/27 07:48:14;;;;;;;1.60;1.13;;;6.60;99.90;;;;;;4882650;29;20051;-77
2021/03/27 07:51:22;;;;;;;2.80;1.50;;;6.70;99.90;;;;;;4884242;29;20044;-80
2021/03/27 07:53:59;;;;;;;1.48;1.08;;;6.70;99.90;;;;;;4882173;29;20052;-78
2021/03/27 07:56:45;;;;;;;2.15;1.00;;;6.80;99.90;;;;;;4881989;29;20072;-78
2021/03/27 07:59:33;;;;;;;2.20;1.23;;;6.90;99.90;;;;;;4897308;29;20044;-78
2021/03/27 08:02:30;;;;;;;1.60;1.30;;;6.90;99.90;;;;;;4898179;29;20036;-80
2021/03/27 08:05:04;;;;;;;2.03;1.38;;;6.90;99.90;;;;;;4897121;29;20480;-78
2021/03/27 08:07:50;;;;;;;1.73;1.10;;;6.90;99.90;;;;;;4882344;29;20131;-78
2021/03/27 08:10:39;;;;;;;1.60;1.30;;;6.90;99.90;;;;;;4882623;29;20044;-77
2021/03/27 08:13:14;;;;;;;1.33;0.93;;;6.90;99.90;;;;;;4898332;29;20135;-77
2021/03/27 08:16:23;;;;;;;1.45;1.15;;;6.90;99.90;;;;;;4897187;29;20139;-78
2021/03/27 08:19:20;;;;;;;1.98;1.20;;;6.90;99.90;;;;;;4846870;29;20063;-77
2021/03/27 08:22:26;;;;;;;1.35;0.93;;;6.90;99.90;;;;;;4902415;29;20131;-78
2021/03/27 08:25:19;;;;;;;2.00;1.17;;;6.80;99.90;;;;;;4878800;29;20060;-78
2021/03/27 08:28:42;;;;;;;1.15;0.63;;;6.80;99.90;;;;;;4862846;29;20076;-78
2021/03/27 08:31:28;;;;;;;1.60;0.90;;;6.60;99.90;;;;;;4856191;29;20134;-77
2021/03/27 08:34:17;;;;;;;1.30;0.90;;;6.50;99.90;;;;;;4903722;29;20068;-82
2021/03/27 08:48:24;;;;;;;1.85;1.02;;;6.20;99.90;;;;;;4916800;29;20039;-77
2021/03/27 08:51:33;;;;;;;2.03;0.90;;;6.10;99.90;;;;;;4885987;29;20063;-77
2021/03/27 08:54:25;;;;;;;1.58;1.00;;;6.20;99.90;;;;;;4877926;29;20128;-78
2021/03/27 08:57:12;;;;;;;1.25;0.70;;;6.20;99.90;;;;;;4876885;29;20788;-77
2021/03/27 09:00:08;;;;;;;4.82;1.50;;;6.20;99.90;;;;;;4874860;29;20051;-77
2021/03/27 09:02:51;;;;;;;1.30;0.98;;;6.20;99.90;;;;;;4877747;29;20378;-77
2021/03/27 09:05:27;;;;;;;2.05;1.05;;;6.20;99.90;;;;;;4880780;29;20120;-77
2021/03/27 09:08:17;;;;;;;1.80;1.13;;;6.30;99.90;;;;;;4880277;29;20140;-77
2021/03/27 09:11:15;;;;;;;1.05;0.80;;;6.30;99.90;;;;;;4880919;29;20084;-78
2021/03/27 09:13:58;;;;;;;1.67;1.25;;;6.40;99.90;;;;;;4888499;29;20095;-78
2021/03/27 09:16:52;;;;;;;1.48;0.90;;;6.50;99.90;;;;;;4896494;29;20037;-77
2021/03/27 09:19:29;;;;;;;2.83;0.80;;;6.60;99.90;;;;;;4867578;29;20504;-77
2021/03/27 09:22:36;;;;;;;0.70;0.70;;;6.60;99.90;;;;;;4880596;29;20135;-78
2021/03/27 09:25:29;;;;;;;2.40;0.65;;;6.60;99.90;;;;;;4865207;29;20143;-77
2021/03/27 09:28:27;;;;;;;1.00;0.70;;;6.60;99.90;;;;;;4897163;29;20123;-77
2021/03/27 09:31:02;;;;;;;2.60;0.80;;;6.60;99.90;;;;;;4880415;29;20079;-78
2021/03/27 09:33:40;;;;;;;1.38;0.60;;;6.60;99.90;;;;;;4870999;29;20159;-77
2021/03/27 09:36:26;;;;;;;1.77;0.80;;;6.70;99.90;;;;;;4874113;29;20040;-78
2021/03/27 09:39:15;;;;;;;1.55;0.70;;;6.70;99.90;;;;;;4875490;29;20059;-78
2021/03/27 09:42:23;;;;;;;5.65;0.75;;;6.70;99.90;;;;;;4877646;29;20059;-79
2021/03/27 09:45:10;;;;;;;1.70;0.70;;;6.70;99.90;;;;;;4896281;29;20136;-77
2021/03/27 09:48:26;;;;;;;1.63;0.52;;;6.70;99.90;;;;;;4899349;29;20048;-78
2021/03/27 09:51:34;;;;;;;3.33;0.93;;;6.70;99.90;;;;;;4871607;29;20107;-77
2021/03/27 09:54:26;;;;;;;0.93;0.70;;;6.70;99.90;;;;;;4889365;29;20049;-78
2021/03/27 09:57:22;;;;;;;2.03;0.60;;;6.90;99.90;;;;;;4884048;29;20036;-78
2021/03/27 10:00:20;;;;;;;1.73;0.60;;;7.00;99.90;;;;;;4843919;29;20567;-78
2021/03/27 10:03:05;;;;;;;1.92;0.95;;;6.90;99.90;;;;;;4846956;29;20055;-77
2021/03/27 10:05:52;;;;;;;2.75;0.75;;;7.00;99.90;;;;;;4902834;29;20063;-79
2021/03/27 10:15:03;;;;;;;1.40;0.60;;;7.30;99.90;;;;;;4901612;29;20104;-79
2021/03/27 10:17:41;;;;;;;4.50;1.23;;;7.30;99.90;;;;;;4897646;29;20055;-80
2021/03/27 10:23:33;;;;;;;1.80;1.00;;;7.50;99.90;;;;;;5191874;23;20403;-79
2021/03/27 10:26:34;;;;;;;1.98;1.02;;;7.60;99.90;;;;;;4904725;29;20103;-79
2021/03/27 10:29:10;;;;;;;2.00;0.75;;;7.60;99.90;;;;;;4903817;29;20067;-78
2021/03/27 10:31:47;;;;;;;1.70;0.75;;;7.70;99.90;;;;;;4908777;29;20073;-79
2021/03/27 10:34:43;;;;;;;1.77;0.70;;;8.10;99.90;;;;;;4890240;29;20054;-81
2021/03/27 10:37:38;;;;;;;2.88;1.45;;;8.40;99.90;;;;;;4901651;29;20048;-79
2021/03/27 10:40:31;;;;;;;1.45;1.10;;;8.50;99.90;;;;;;4866929;29;20140;-79
2021/03/27 10:43:43;;;;;;;2.38;1.00;;;8.70;99.90;;;;;;4850651;29;20457;-80
2021/03/27 10:46:22;;;;;;;2.72;0.90;;;8.60;99.90;;;;;;4869133;29;20052;-78
2021/03/27 10:52:36;;;;;;;1.60;0.80;;;8.40;99.90;;;;;;4878351;29;20049;-79
2021/03/27 10:55:41;;;;;;;1.85;0.93;;;8.30;99.90;;;;;;4851201;29;20053;-78
2021/03/27 10:58:41;;;;;;;1.38;0.77;;;8.30;99.90;;;;;;4850331;29;20053;-79
2021/03/27 11:04:23;;;;;;;7.57;4.30;;;8.20;99.90;;;;;;5014870;23;20082;-78
2021/03/27 11:07:10;;;;;;;4.20;2.83;;;8.20;99.90;;;;;;4918594;29;20420;-79
2021/03/27 11:10:14;;;;;;;6.03;3.85;;;8.10;99.90;;;;;;4900950;29;20423;-79
2021/03/27 11:13:21;;;;;;;11.07;8.27;;;8.10;99.90;;;;;;4882019;29;20516;-78
2021/03/27 11:16:10;;;;;;;24.58;12.27;;;8.10;99.90;;;;;;4902534;29;20158;-80
2021/03/27 11:18:41;;;;;;;;;;;8.20;99.90;;;;;;4887287;29;20076;-78
2021/03/27 11:21:40;;;;;;;3.42;1.70;;;8.20;99.90;;;;;;4991165;23;19927;-78
2021/03/27 11:24:46;;;;;;;2.92;1.05;;;8.10;99.90;;;;;;4894161;29;20624;-79
2021/03/27 11:27:46;;;;;;;20.85;6.35;;;8.10;99.90;;;;;;4897916;29;20052;-78
2021/03/27 11:33:35;;;;;;;24.02;7.20;;;8.50;99.90;;;;;;5011408;23;20048;-79
2021/03/27 11:36:15;;;;;;;22.80;6.75;;;8.70;99.00;;;;;;4885735;29;20052;-79
2021/03/27 11:38:54;;;;;;;19.27;5.72;;;8.90;96.80;;;;;;4885444;29;20103;-78
2021/03/27 11:41:40;;;;;;;4.13;1.02;;;9.10;97.10;;;;;;4882101;29;20050;-79
2021/03/27 11:44:21;;;;;;;5.28;1.80;;;9.40;99.60;;;;;;4882534;29;20119;-79
2021/03/27 11:46:52;;;;;;;18.52;6.15;;;9.70;95.90;;;;;;4883913;29;20489;-79
2021/03/27 11:53:17;;;;;;;3.10;2.13;;;9.70;93.70;;;;;;4985663;23;20059;-79
2021/03/27 11:55:58;;;;;;;4.50;1.20;;;9.50;95.00;;;;;;4863470;29;20049;-79
2021/03/27 12:07:25;;;;;;;2.13;1.48;;;9.40;95.50;;;;;;4859219;29;20068;-78
2021/03/27 12:10:01;;;;;;;5.57;1.73;;;9.60;93.60;;;;;;4844006;29;20056;-79
2021/03/27 12:13:04;;;;;;;2.65;1.42;;;9.80;92.70;;;;;;4845527;29;20148;-78
2021/03/27 12:15:31;;;;;;;2.35;1.15;;;10.00;84.10;;;;;;4848003;29;20053;-80
2021/03/27 12:18:09;;;;;;;1.90;0.80;;;10.10;86.40;;;;;;4846602;29;20110;-78
2021/03/27 12:24:09;;;;;;;2.95;0.90;;;10.20;75.20;;;;;;3823623;23;20121;-82
2021/03/27 12:26:53;;;;;;;;;;;10.40;80.70;;;;;;4864009;29;20088;-78
2021/03/27 12:29:42;;;;;;;1.27;0.90;;;10.60;84.20;;;;;;4879992;29;19923;-78
2021/03/27 12:32:51;;;;;;;3.70;1.15;;;10.70;75.80;;;;;;4846998;29;20046;-79
2021/03/27 12:35:33;;;;;;;1.88;0.93;;;10.70;66.70;;;;;;4861378;29;20056;-78
2021/03/27 12:38:08;;;;;;;0.80;0.60;;;10.50;63.90;;;;;;4846749;29;20050;-78
2021/03/27 12:40:40;;;;;;;2.70;1.13;;;10.50;61.20;;;;;;4862141;29;20052;-79
2021/03/27 12:43:17;;;;;;;3.35;1.13;;;10.40;62.90;;;;;;4862191;29;20045;-78
2021/03/27 12:46:02;;;;;;;1.85;0.60;;;10.40;62.70;;;;;;4862187;29;20069;-78
2021/03/27 12:48:54;;;;;;;2.28;1.00;;;10.40;60.90;;;;;;4861499;29;20060;-79
2021/03/27 12:51:45;;;;;;;2.22;0.70;;;10.60;61.20;;;;;;4954655;23;20569;-78
2021/03/27 12:54:42;;;;;;;0.90;0.68;;;10.60;59.40;;;;;;4880013;29;20057;-78
2021/03/27 12:57:40;;;;;;;1.58;0.70;;;10.60;59.70;;;;;;4880228;29;20132;-79
2021/03/27 13:00:43;;;;;;;3.33;0.90;;;10.70;60.60;;;;;;4876597;29;20513;-78
2021/03/27 13:03:11;;;;;;;2.17;1.17;;;10.80;64.00;;;;;;4861889;29;20057;-79
2021/03/27 13:06:09;;;;;;;1.63;0.65;;;10.90;61.90;;;;;;4846653;29;20057;-78
2021/03/27 13:08:39;;;;;;;1.23;0.70;;;10.70;59.00;;;;;;4861793;29;20092;-78
2021/03/27 13:11:08;;;;;;;1.25;0.80;;;10.70;60.50;;;;;;4845944;29;20073;-79
2021/03/27 13:13:53;;;;;;;4.72;0.75;;;10.70;59.40;;;;;;4876617;29;20054;-78
2021/03/27 13:16:48;;;;;;;1.58;1.02;;;10.70;61.10;;;;;;4846470;29;20050;-78
2021/03/27 13:19:44;;;;;;;4.75;1.00;;;10.60;59.20;;;;;;4861174;29;20045;-78
2021/03/27 13:22:28;;;;;;;6.53;3.83;;;10.60;62.50;;;;;;4861811;29;20056;-78
2021/03/27 13:25:20;;;;;;;2.45;0.80;;;10.40;59.10;;;;;;4846344;29;20050;-78
2021/03/27 13:28:04;;;;;;;3.10;0.75;;;10.20;59.60;;;;;;4846928;29;20046;-79
2021/03/27 13:30:39;;;;;;;1.77;0.95;;;10.30;62.10;;;;;;4846325;29;20053;-78
2021/03/27 13:33:11;;;;;;;2.60;0.80;;;10.50;59.10;;;;;;4846313;29;20050;-78
2021/03/27 13:36:01;;;;;;;2.78;0.80;;;10.60;58.80;;;;;;4847239;29;20422;-79
2021/03/27 13:38:48;;;;;;;2.22;0.70;;;10.70;55.70;;;;;;4861755;29;20045;-78
2021/03/27 13:41:36;;;;;;;2.00;0.95;;;10.80;55.10;;;;;;4845616;29;20578;-78
2021/03/27 13:44:17;;;;;;;1.08;0.80;;;11.00;56.90;;;;;;4847423;29;20045;-77
2021/03/27 13:46:59;;;;;;;2.25;0.90;;;11.00;51.00;;;;;;4861731;29;20625;-78
2021/03/27 13:49:34;;;;;;;1.40;0.70;;;11.00;53.10;;;;;;4846018;29;20494;-78
2021/03/27 13:52:28;;;;;;;2.67;0.60;;;11.00;52.20;;;;;;4849447;29;20046;-78
2021/03/27 13:55:16;;;;;;;0.75;0.60;;;10.90;50.70;;;;;;4864239;29;20475;-78
2021/03/27 13:58:19;;;;;;;1.92;0.60;;;10.60;53.00;;;;;;4862830;29;20418;-78
2021/03/27 14:00:56;;;;;;;0.98;0.60;;;10.60;54.60;;;;;;5158923;23;20098;-79
2021/03/27 14:04:25;;;;;;;0.95;0.45;;;10.50;52.00;;;;;;4849765;29;20502;-78
2021/03/27 14:06:55;;;;;;;1.23;0.68;;;10.40;51.60;;;;;;4883848;29;20117;-78
2021/03/27 14:09:36;;;;;;;1.73;0.50;;;10.30;53.00;;;;;;4882223;29;20043;-76
2021/03/27 14:12:18;;;;;;;1.65;0.70;;;10.20;55.00;;;;;;4861400;29;20140;-79
2021/03/27 14:15:04;;;;;;;1.10;0.63;;;10.20;54.80;;;;;;4860747;29;20069;-78
2021/03/27 14:18:18;;;;;;;2.17;0.80;;;10.30;56.90;;;;;;4860420;29;20144;-78
2021/03/27 14:20:59;;;;;;;1.65;0.60;;;10.30;58.90;;;;;;4860178;29;20454;-79
2021/03/27 14:23:52;;;;;;;1.83;0.70;;;10.30;56.70;;;;;;4845796;29;20140;-78
2021/03/27 14:26:31;;;;;;;2.72;0.60;;;10.30;56.40;;;;;;4860773;29;20052;-78
2021/03/27 14:29:16;;;;;;;4.05;0.85;;;10.20;53.40;;;;;;4845814;29;20056;-78
2021/03/27 14:32:14;;;;;;;3.42;0.73;;;10.30;52.20;;;;;;4875246;29;20153;-78
2021/03/27 14:34:58;;;;;;;1.70;0.60;;;10.40;53.30;;;;;;4845454;29;20450;-78
2021/03/27 14:38:03;;;;;;;1.05;0.68;;;10.70;52.80;;;;;;4845824;29;20143;-78
2021/03/27 14:40:36;;;;;;;1.58;0.60;;;10.80;51.80;;;;;;4845434;29;20049;-78
2021/03/27 14:43:07;;;;;;;;;;;10.70;53.20;;;;;;4845977;29;20140;-78
2021/03/27 14:46:13;;;;;;;2.40;0.68;;;10.60;53.50;;;;;;4860346;29;19924;-78
2021/03/27 14:49:07;;;;;;;1.15;0.60;;;10.60;53.60;;;;;;4861594;29;20049;-78
2021/03/27 15:06:41;;;;;;;4.18;0.77;;;11.00;50.40;;;;;;4864110;29;20053;-78
2021/03/27 15:09:38;;;;;;;3.17;1.02;;;11.40;51.20;;;;;;4847036;29;20066;-79
2021/03/27 15:12:17;;;;;;;0.82;0.55;;;11.80;50.40;;;;;;4827756;29;20476;-79
2021/03/27 15:14:52;;;;;;;1.52;0.80;;;11.60;49.30;;;;;;4827940;29;20049;-79
2021/03/27 15:17:42;;;;;;;3.05;0.90;;;11.50;49.50;;;;;;4828068;29;20085;-79
2021/03/27 15:23:23;;;;;;;1.63;0.60;;;11.90;50.50;;;;;;5286680;23;20041;-79
2021/03/27 15:29:05;;;;;;;1.92;0.70;;;11.10;49.30;;;;;;4880749;29;20114;-78
2021/03/27 15:31:40;;;;;;;1.58;0.88;;;10.60;49.80;;;;;;4849652;29;20046;-79
2021/03/27 15:34:13;;;;;;;2.55;0.95;;;10.50;50.90;;;;;;4860541;29;20132;-75
2021/03/27 15:36:57;;;;;;;3.10;0.80;;;10.40;52.70;;;;;;4860839;29;20045;-78
2021/03/27 15:39:37;;;;;;;1.20;0.60;;;10.20;51.10;;;;;;4860673;29;20077;-78
2021/03/27 15:42:12;;;;;;;1.63;0.77;;;10.10;50.50;;;;;;4860802;29;20144;-79
2021/03/27 15:44:53;;;;;;;1.60;0.80;;;10.10;52.20;;;;;;4846027;29;20132;-78
2021/03/27 15:47:41;;;;;;;2.13;0.63;;;10.10;52.30;;;;;;4846271;29;20038;-78
2021/03/27 15:50:25;;;;;;;3.95;2.00;;;10.10;51.50;;;;;;4846246;29;20057;-78
2021/03/27 15:53:06;;;;;;;0.85;0.50;;;10.00;52.10;;;;;;4860657;29;20089;-79
2021/03/27 15:55:38;;;;;;;3.13;0.80;;;10.20;52.00;;;;;;4845884;29;20504;-78
2021/03/27 15:59:09;;;;;;;2.50;0.77;;;10.10;51.20;;;;;;4845252;29;20053;-78
2021/03/27 16:01:40;;;;;;;1.48;0.75;;;9.90;51.40;;;;;;4844946;29;20049;-78
2021/03/27 16:04:22;;;;;;;2.08;0.63;;;9.80;52.80;;;;;;4845834;29;20077;-78
2021/03/27 16:07:02;;;;;;;1.80;0.85;;;9.70;52.10;;;;;;4844985;29;20140;-79